Meteo Giornale » Osservazioni meteo Italia » Palermo-Punta Raisi

ore: 06:50 - Osservazioni Meteo Palermo-Punta Raisi
Lat. 38° 11' N Lon. 13° 6' E Alt. 21 metri s.l.m.

sereno Europe/Rome

25 °C

Sereno

Temp. 24 Ore

25 °C

35 °C

Nord

1.8 Km/h

Dew point 20 °C

Umidità 73 %

Visibilità  10 Km

Il sole sorge alle ore 06:05

Il sole tramonta alle ore 20:22

Data e Ora Cielo e Fenomeni T °C DP °C Um. % Pres. hPa Vis. km Vento km/h
Oggi h: 06:50 sereno Sereno 25 20 73 1016 10 N 1.8
Oggi h: 06:20 sereno Sereno 25 18 65 1015 10 N 1.8
Oggi h: 05:50 sereno Sereno 25 17 61 1015 10 N 1.8
Oggi h: 05:20 sereno Sereno 25 18 65 1015 10 N 1.8
Oggi h: 04:50 sereno Sereno 25 19 69 1015 10 N 3.7
Oggi h: 04:20 sereno Sereno 25 19 69 1015 10 N 5.5
Oggi h: 03:50 sereno Sereno 25 20 73 1015 10 N 3.7
Oggi h: 03:20 sereno Sereno 26 20 69 1016 10 N 3.7
Oggi h: 02:50 sereno Sereno 26 20 69 1016 10 N 1.8
Oggi h: 02:20 sereno Sereno 26 21 73 1016 10 N 3.7
Oggi h: 01:50 sereno Sereno 26 21 73 1016 10 N 3.7
Oggi h: 01:20 sereno Sereno 26 21 73 1016 10 N 5.5
Oggi h: 00:50 sereno Sereno 26 21 73 1017 10 N 5.5
Oggi h: 00:20 sereno Sereno 27 21 69 1017 10 N 3.7
Ieri h: 23:50 sereno Sereno 27 21 69 1017 10 N 3.7
Ieri h: 23:20 sereno Sereno 27 22 74 1017 10 N 5.5
Ieri h: 22:50 sereno Sereno 27 21 69 1017 10 SO 7.4
Ieri h: 22:20 sereno Sereno 27 22 74 1017 10 N 5.5
Ieri h: 21:50 sereno Sereno 27 22 74 1016 10 SO 7.4
Ieri h: 21:20 sereno Sereno 27 22 74 1016 10 SO 7.4
Ieri h: 20:50 sereno Sereno 28 23 74 1016 10 S/SO 13
Ieri h: 20:20 sereno Sereno 28 22 69 1016 10 SO 13
Ieri h: 19:50 sereno Sereno 29 24 74 1016 10 SO 11.1
Ieri h: 18:50 sereno Sereno 29 22 66 1015 10 O/SO 13
Ieri h: 18:20 sereno Sereno 30 22 62 1015 10 SO 14.8
Ieri h: 17:50 sereno Sereno 31 24 66 1016 10 O/SO 13
Ieri h: 17:20 sereno Sereno 35 16 32 1015 10 E/NE 20.3
Ieri h: 16:50 sereno Sereno 35 16 32 1016 10 E/NE 22.2
Ieri h: 16:20 sereno Sereno 34 18 38 1016 10 E/NE 24
Ieri h: 15:50 sereno Sereno 33 19 43 1016 10 E/NE 25.9
Ieri h: 15:20 sereno Sereno 33 20 46 1016 10 E/NE 27.8
Ieri h: 14:50 sereno Sereno 32 21 52 1016 10 E/NE 31.5
Ieri h: 14:20 sereno Sereno 32 24 62 1017 10 NE 22.2
Ieri h: 13:50 sereno Sereno 31 21 55 1017 10 NE 18.5
Ieri h: 13:20 sereno Sereno 31 24 66 1017 10 NE 18.5
Ieri h: 12:50 sereno Sereno 32 19 46 1017 10 E/NE 18.5
Ieri h: 12:20 sereno Sereno 31 20 52 1018 10 E/NE 16.7
Ieri h: 11:50 sereno Sereno 31 21 55 1018 10 N/NE 13
Ieri h: 11:20 sereno Sereno 30 22 62 1018 10 N/NE 11.1
Ieri h: 10:50 sereno Sereno 29 16 45 1018 10 N/NE 7.4
Ieri h: 10:20 sereno Sereno 29 18 51 1018 10 N 3.7
Ieri h: 09:50 sereno Sereno 28 17 51 1018 10 O/SO 7.4
Ieri h: 09:20 sereno Sereno 28 19 58 1018 10 O 11.1
Ieri h: 08:50 sereno Sereno 29 20 58 1017 10 N 3.7
Ieri h: 08:20 sereno Sereno 28 13 39 1017 10 S/SO 13
Ieri h: 07:50 sereno Sereno 29 10 30 1017 10 S/SO 14.8